Terminal Aerodrome Forecast
Issued by NWS Cleveland, OH

Home | Current Version | Previous Version | Text Only | Print | Product List | Glossary On
Versions: 1 2 3 4 5 6 7 8 9 10 11 12 13 14
404
FTUS41 KCLE 240539
TAFYNG
TAF
KYNG 240539Z 2406/2506 18015G25KT P6SM OVC015
     FM240730 22015G25KT P6SM BKN012 OVC035
      TEMPO 2408/2412 5SM -SHRA OVC015
     FM241200 22015G25KT P6SM SCT012 OVC040
      TEMPO 2412/2416 5SM -SHRA OVC012
     FM241600 22015G25KT P6SM BKN025
     FM241800 22015G25KT P6SM BKN035=

USA.gov is the U.S. government's official web portal to all federal, state and local government web resources and services.